Terminal Aerodrome Forecast
Issued by NWS

Home | Current Version | Previous Version | Text Only | Print | Product List | Glossary On
Versions: 1 2 3 4 5 6 7 8 9 10 11 12
000
FTUS43 KMPX 110500
TAFRWF
TAF
KRWF 110530Z 1106/1206 16012KT P6SM VCSH SCT040 OVC090
      TEMPO 1109/1112 4SM TSRA OVC035CB
     FM111300 18011KT P6SM -SHRA BKN030 OVC070
     FM111700 21009KT P6SM VCSH BKN035 OVC080
     FM112200 23007KT P6SM SCT035 BKN060=

USA.gov is the U.S. government's official web portal to all federal, state and local government web resources and services.